• Join FlightAware (Why Join?)
  • Login
  • US Flag 
Gobble Gobble! 
05:46AM EST


 

Airport Tracker/Info


-or-


 

Live Flight TrackerFlight Track Log ✈ UAL4843 ✈ 25-Apr-2013 ✈ KBDL - KEWR

Flight Track Log - Related Links

Times and Time Zones

All times are in EDT time to prevent confusion due to time zone crossing. See the UAL4843 flight status page for this flight to view local times or setup timezone preferences in your user account.

Time Position Orientation Groundspeed Altitude Reporting Facility
EDT Latitude Longitude Course Direction KTS MPH feet Rate Location/Type
10:34AM 41.9458 -72.6803 82° East 122 140 700  Level Boston Center
10:35AM 41.9542 -72.5992 82° East 170 196 2,700 1,440 Climbing Boston Center
10:37AM 41.9253 -72.5294 119° Southeast 191 220 4,400 1,380 Climbing Boston Center
10:37AM 41.8939 -72.5125 158° South 192 221 5,400 900 Climbing Boston Center
10:38AM 41.8461 -72.5378 202° Southwest 200 230 6,000 240 Climbing Boston Center
10:39AM 41.7939 -72.5989 221° Southwest 240 276 6,000  Level Boston Center
10:40AM 41.7417 -72.6572 220° Southwest 251 289 6,000  Level Boston Center
10:42AM 41.6853 -72.7208 220° Southwest 251 289 6,000  Level Boston Center
10:43AM 41.6000 -72.8167 220° Southwest 251 289 6,000  Level New York TRACON
10:44AM 41.5333 -72.8833 217° Southwest 253 291 6,000  Level New York TRACON
10:45AM 41.5000 -72.9500 236° Southwest 249 287 6,000  Level New York TRACON
10:46AM 41.4667 -73.0333 242° Southwest 244 281 6,000  Level New York TRACON
10:47AM 41.4500 -73.1167 255° West 244 281 6,000  Level New York TRACON
10:48AM 41.4167 -73.2000 242° Southwest 245 282 6,000  Level New York TRACON
10:49AM 41.3833 -73.2833 242° Southwest 244 281 6,000  Level New York TRACON
10:50AM 41.3500 -73.3667 242° Southwest 246 283 6,000  Level New York TRACON
10:51AM 41.3333 -73.4500 255° West 242 278 6,000  Level New York TRACON
10:52AM 41.3000 -73.5333 242° Southwest 246 283 6,000 -60 Level New York TRACON
10:53AM 41.2833 -73.6167 255° West 242 278 5,900  Descending New York TRACON
10:54AM 41.2667 -73.7000 255° West 236 272 6,000 -240 Climbing New York TRACON
10:55AM 41.2667 -73.7833 270° West 241 277 5,500 -540 Descending New York TRACON
10:56AM 41.2500 -73.8667 255° West 241 277 5,000 -240 Descending New York TRACON
10:57AM 41.2500 -73.9667 270° West 226 260 5,000  Level New York TRACON
10:58AM 41.2333 -74.0500 255° West 227 261 5,000 -60 Level New York TRACON
10:59AM 41.2333 -74.1333 270° West 228 262 4,900  Descending New York TRACON
11:00AM 41.2167 -74.2167 255° West 227 261 5,000  Climbing New York TRACON
11:01AM 41.2167 -74.2833 270° West 238 274 4,900 -60 Descending New York TRACON
11:02AM 41.1333 -74.3167 197° South 265 305 4,900  Level New York TRACON
11:03AM 41.0667 -74.3500 201° Southwest 266 306 4,900  Level New York TRACON
11:04AM 41.0000 -74.3833 201° Southwest 261 300 4,900  Level New York TRACON
11:05AM 40.9333 -74.4167 201° Southwest 262 302 4,900  Level New York TRACON
11:06AM 40.8667 -74.4667 210° Southwest 261 300 4,900  Level New York TRACON
11:07AM 40.8000 -74.5000 201° Southwest 261 300 4,900  Level New York TRACON
11:08AM 40.7167 -74.5000 180° South 261 300 4,900  Level New York TRACON
11:09AM 40.6500 -74.5167 191° South 265 305 4,900 -180 Level New York TRACON
11:10AM 40.5833 -74.5000 169° South 239 275 4,600 -540 Descending New York TRACON
11:11AM 40.5333 -74.4500 143° Southeast 224 258 3,900 -480 Descending New York TRACON
11:12AM 40.5167 -74.3833 108° East 209 241 3,700 -360 Descending New York TRACON
11:13AM 40.5167 -74.3167 90° East 198 228 3,300 -480 Descending New York TRACON
11:14AM 40.5500 -74.2667 49° Northeast 190 219 2,900 -600 Descending New York TRACON
11:15AM 40.6000 -74.2333 27° Northeast 186 214 2,100 -900 Descending New York TRACON
11:16AM 40.6333 -74.2000 37° Northeast 162 186 1,100 -1,020 Descending New York TRACON
11:18AM 40.6833 -74.1667 66° East  Level FlightAware Approximate
11:25AM 40.6925 -74.1687 66° East  Level Estimated
11:26AM 40.6925 -74.1687 66° East  Level Estimated